Time;durP1;ratioP1;P1;durP2;ratioP2;P2;SDS_P1;SDS_P2;PMS_P1;PMS_P2;Temp;Humidity;BMP_temperature;BMP_pressure;BME280_temperature;BME280_humidity;BME280_pressure;Samples;Min_cycle;Max_cycle;Signal;HPM_P1;HPM_P2
2021/09/23 00:00:37;;;;;;;34.75;23.60;;;256.90;2252.80;;;;;;5050882;28;20036;-78
2021/09/23 00:03:10;;;;;;;29.40;22.85;;;256.90;2252.80;;;;;;5029373;28;20021;-78
2021/09/23 00:05:37;;;;;;;30.27;21.17;;;256.90;2252.80;;;;;;5013189;28;20029;-77
2021/09/23 00:08:04;;;;;;;33.90;24.20;;;256.90;2252.80;;;;;;5016004;28;20022;-77
2021/09/23 00:10:35;;;;;;;28.20;22.45;;;256.80;2252.80;;;;;;5031472;28;20023;-76
2021/09/23 00:13:03;;;;;;;28.15;20.95;;;256.80;2252.80;;;;;;5050708;28;20053;-77
2021/09/23 00:15:29;;;;;;;32.90;21.73;;;256.80;2252.80;;;;;;5032491;28;20022;-78
2021/09/23 00:18:00;;;;;;;30.13;23.13;;;256.80;2252.80;;;;;;5032879;28;20534;-77
2021/09/23 00:20:29;;;;;;;31.50;21.90;;;256.70;2252.80;;;;;;5033184;28;20044;-78
2021/09/23 00:22:56;;;;;;;27.65;20.13;;;256.60;2252.80;;;;;;5022097;28;20029;-77
2021/09/23 00:25:25;;;;;;;30.70;22.40;;;256.70;2252.80;;;;;;5050020;28;20048;-77
2021/09/23 00:27:51;;;;;;;27.13;19.42;;;256.60;2252.80;;;;;;5032337;28;20022;-78
2021/09/23 00:30:17;;;;;;;27.73;20.23;;;256.50;2252.80;;;;;;5050258;28;20039;-78
2021/09/23 00:32:43;;;;;;;24.35;18.83;;;256.50;2252.80;;;;;;5049976;28;20399;-79
2021/09/23 00:35:09;;;;;;;23.70;18.17;;;256.60;2252.80;;;;;;5035684;28;20078;-78
2021/09/23 00:37:35;;;;;;;30.52;20.30;;;256.50;2252.80;;;;;;5052019;28;20515;-78
2021/09/23 00:40:01;;;;;;;26.02;18.58;;;256.60;2252.80;;;;;;5015534;28;20044;-77
2021/09/23 00:42:27;;;;;;;22.48;16.65;;;256.50;2252.80;;;;;;5028046;28;20033;-78
2021/09/23 00:44:57;;;;;;;21.70;16.42;;;256.50;2252.80;;;;;;5032028;28;20063;-77
2021/09/23 00:47:23;;;;;;;23.15;16.88;;;256.50;2252.80;;;;;;5035508;28;20104;-78
2021/09/23 00:49:50;;;;;;;22.40;16.02;;;256.40;2252.80;;;;;;5032715;28;20156;-78
2021/09/23 00:52:16;;;;;;;19.77;15.00;;;256.40;2252.80;;;;;;5042825;28;20021;-77
2021/09/23 00:54:43;;;;;;;20.83;16.73;;;256.40;2252.80;;;;;;5034919;28;20098;-78
2021/09/23 00:57:08;;;;;;;20.95;16.02;;;256.30;2252.80;;;;;;5016120;28;20026;-77
2021/09/23 00:59:35;;;;;;;24.85;16.00;;;256.30;2252.80;;;;;;5046643;28;20175;-77
2021/09/23 01:02:01;;;;;;;20.98;16.42;;;256.20;2252.80;;;;;;5053386;28;20029;-77
2021/09/23 01:04:27;;;;;;;23.52;16.17;;;256.20;2252.80;;;;;;5032346;28;20384;-77
2021/09/23 01:06:53;;;;;;;21.60;15.88;;;256.20;2252.80;;;;;;5050410;28;20025;-77
2021/09/23 01:09:19;;;;;;;21.65;16.58;;;256.20;2252.80;;;;;;5049311;28;20025;-78
2021/09/23 01:11:45;;;;;;;22.65;17.75;;;256.20;2252.80;;;;;;5032532;28;20025;-79
2021/09/23 01:14:11;;;;;;;24.42;17.13;;;256.10;2252.80;;;;;;5044078;28;20067;-77
2021/09/23 01:16:37;;;;;;;24.85;17.67;;;256.10;2252.80;;;;;;5047442;28;20313;-77
2021/09/23 01:19:04;;;;;;;24.42;17.70;;;256.10;2252.80;;;;;;5052996;28;20429;-77
2021/09/23 01:21:30;;;;;;;26.27;18.65;;;256.10;2252.80;;;;;;5044387;28;20033;-77
2021/09/23 01:23:56;;;;;;;23.92;16.60;;;256.00;2252.80;;;;;;5043938;28;20036;-77
2021/09/23 01:26:28;;;;;;;29.10;18.08;;;231.30;2252.80;;;;;;5043527;28;20475;-75
2021/09/23 01:28:54;;;;;;;29.23;19.13;;;231.30;2252.80;;;;;;5053224;28;20476;-76
2021/09/23 01:31:20;;;;;;;28.35;19.60;;;231.30;2252.80;;;;;;5048451;28;20072;-77
2021/09/23 01:33:47;;;;;;;32.38;19.92;;;231.20;2252.80;;;;;;5044040;28;20067;-75
2021/09/23 01:36:13;;;;;;;32.95;22.13;;;231.30;2252.80;;;;;;5032767;28;20091;-76
2021/09/23 01:38:39;;;;;;;25.80;18.27;;;231.30;2252.80;;;;;;5052870;28;20021;-75
2021/09/23 01:41:05;;;;;;;27.45;18.67;;;231.20;2252.80;;;;;;5025394;28;20025;-78
2021/09/23 01:43:31;;;;;;;28.45;20.77;;;231.30;2252.80;;;;;;5038637;28;20107;-77
2021/09/23 01:45:57;;;;;;;30.10;20.55;;;231.20;2252.80;;;;;;5038322;28;20377;-76
2021/09/23 01:48:23;;;;;;;26.02;20.40;;;231.20;2252.80;;;;;;5034209;28;20614;-76
2021/09/23 01:50:49;;;;;;;27.17;19.63;;;231.20;2252.80;;;;;;5039128;28;20040;-76
2021/09/23 01:53:15;;;;;;;29.02;19.77;;;231.20;2252.80;;;;;;5034219;28;20037;-76
2021/09/23 01:55:40;;;;;;;29.10;21.15;;;231.20;2252.80;;;;;;5039314;28;20395;-75
2021/09/23 01:58:07;;;;;;;26.80;19.70;;;231.20;2252.80;;;;;;5052182;28;20021;-76
2021/09/23 02:00:33;;;;;;;29.42;22.48;;;231.10;2252.80;;;;;;5039216;28;20036;-75
2021/09/23 02:02:59;;;;;;;28.33;20.40;;;231.20;2252.80;;;;;;5038599;28;20064;-76
2021/09/23 02:05:25;;;;;;;27.95;20.73;;;231.20;2252.80;;;;;;5031031;28;20049;-75
2021/09/23 02:07:50;;;;;;;28.23;20.42;;;231.20;2252.80;;;;;;5047426;28;20412;-75
2021/09/23 02:10:16;;;;;;;29.55;19.85;;;231.20;2252.80;;;;;;5034306;28;20566;-78
2021/09/23 02:12:42;;;;;;;28.35;20.67;;;231.20;2252.80;;;;;;5033934;28;20461;-76
2021/09/23 02:15:09;;;;;;;27.10;20.50;;;231.20;2252.80;;;;;;5038423;28;20056;-76
2021/09/23 02:17:35;;;;;;;26.75;19.45;;;231.20;2252.80;;;;;;5052371;28;20032;-78
2021/09/23 02:20:01;;;;;;;38.80;21.27;;;231.10;2252.80;;;;;;5034538;28;20472;-77
2021/09/23 02:22:27;;;;;;;29.38;20.52;;;231.10;2252.80;;;;;;5033541;28;20112;-77
2021/09/23 02:24:53;;;;;;;35.05;22.88;;;231.10;2252.80;;;;;;5051580;28;20499;-77
2021/09/23 02:27:20;;;;;;;31.63;23.27;;;231.10;2252.80;;;;;;5052290;28;20049;-78
2021/09/23 02:29:45;;;;;;;32.58;23.75;;;231.20;2252.80;;;;;;5030312;28;20034;-77
2021/09/23 02:32:11;;;;;;;33.55;22.83;;;231.10;2252.80;;;;;;5033590;28;20442;-80
2021/09/23 02:34:37;;;;;;;37.83;24.50;;;231.00;2252.80;;;;;;5051345;28;20063;-78
2021/09/23 02:37:04;;;;;;;35.88;23.40;;;231.00;2252.80;;;;;;5030653;28;20033;-77
2021/09/23 02:39:30;;;;;;;36.38;24.17;;;231.00;2252.80;;;;;;5039880;28;20017;-78
2021/09/23 02:41:56;;;;;;;40.40;25.10;;;231.00;2252.80;;;;;;5033716;28;20095;-76
2021/09/23 02:44:22;;;;;;;39.13;27.17;;;231.00;2252.80;;;;;;5030432;28;20468;-76
2021/09/23 02:46:48;;;;;;;32.40;23.80;;;230.90;2252.80;;;;;;5021103;28;20037;-76
2021/09/23 02:49:13;;;;;;;34.00;24.20;;;230.90;2252.80;;;;;;5049688;28;20051;-77
2021/09/23 02:51:39;;;;;;;34.47;23.80;;;230.80;2252.80;;;;;;5050705;28;20488;-77
2021/09/23 02:54:05;;;;;;;35.13;23.27;;;230.90;2252.80;;;;;;5051291;28;20037;-77
2021/09/23 02:56:31;;;;;;;33.67;23.23;;;230.80;2252.80;;;;;;5050751;28;20033;-78
2021/09/23 02:58:57;;;;;;;28.08;21.42;;;230.80;2252.80;;;;;;5050970;28;20036;-76
2021/09/23 03:01:23;;;;;;;29.20;19.38;;;230.80;2252.80;;;;;;5033208;28;20395;-76
2021/09/23 03:03:49;;;;;;;26.63;19.40;;;230.80;2252.80;;;;;;5033380;28;20029;-75
2021/09/23 03:06:15;;;;;;;25.85;17.98;;;230.80;2252.80;;;;;;5051198;28;20020;-76
2021/09/23 03:08:41;;;;;;;28.88;19.58;;;230.50;2252.80;;;;;;5051232;28;20020;-77
2021/09/23 03:11:07;;;;;;;30.40;19.23;;;230.80;2252.80;;;;;;5031398;28;20115;-76
2021/09/23 03:13:33;;;;;;;31.42;21.85;;;230.90;2252.80;;;;;;5039042;28;20104;-77
2021/09/23 03:15:59;;;;;;;31.15;20.30;;;230.90;2252.80;;;;;;5033392;28;20105;-76
2021/09/23 03:18:25;;;;;;;27.27;19.63;;;231.00;2252.80;;;;;;5050690;28;20021;-77
2021/09/23 03:20:51;;;;;;;29.35;20.98;;;231.00;2252.80;;;;;;5050646;28;20029;-76
2021/09/23 03:23:17;;;;;;;30.20;21.27;;;231.00;2252.80;;;;;;5032021;28;20041;-77
2021/09/23 03:25:44;;;;;;;29.38;21.33;;;231.10;2252.80;;;;;;5029664;28;20041;-76
2021/09/23 03:28:10;;;;;;;30.23;21.98;;;231.10;2252.80;;;;;;5030717;28;20021;-78
2021/09/23 03:30:37;;;;;;;30.45;21.45;;;231.10;2252.80;;;;;;5027960;28;20060;-76
2021/09/23 03:33:07;;;;;;;33.28;21.88;;;231.00;2252.80;;;;;;5018293;28;20656;-78
2021/09/23 03:35:33;;;;;;;34.53;22.75;;;231.00;2252.80;;;;;;5022593;28;20079;-75
2021/09/23 03:37:59;;;;;;;28.20;21.25;;;231.00;2252.80;;;;;;5025011;28;20057;-76
2021/09/23 03:40:26;;;;;;;31.15;21.13;;;231.00;2252.80;;;;;;5030100;28;20109;-77
2021/09/23 03:42:52;;;;;;;29.23;21.20;;;231.00;2252.80;;;;;;5030947;28;20036;-77
2021/09/23 03:45:18;;;;;;;29.90;21.40;;;230.90;2252.80;;;;;;5040303;28;20496;-78
2021/09/23 03:47:45;;;;;;;30.85;20.50;;;231.00;2252.80;;;;;;5027548;28;20048;-77
2021/09/23 03:50:12;;;;;;;33.55;22.00;;;231.10;2252.80;;;;;;5025305;28;20030;-78
2021/09/23 03:52:38;;;;;;;35.90;22.08;;;231.00;2252.80;;;;;;5002045;28;20141;-76
2021/09/23 03:55:05;;;;;;;29.50;22.45;;;231.00;2252.80;;;;;;5028247;28;20034;-76
2021/09/23 03:57:31;;;;;;;25.05;20.17;;;231.00;2252.80;;;;;;5027773;28;20389;-77
2021/09/23 03:59:57;;;;;;;32.17;21.55;;;231.00;2252.80;;;;;;5030895;28;20033;-76
2021/09/23 04:02:23;;;;;;;34.78;23.02;;;231.00;2252.80;;;;;;5027001;28;20035;-76
2021/09/23 04:04:48;;;;;;;37.72;23.55;;;230.90;2252.80;;;;;;5019905;28;20030;-77
2021/09/23 04:07:14;;;;;;;30.25;23.17;;;231.00;2252.80;;;;;;5026086;28;20108;-75
2021/09/23 04:09:40;;;;;;;38.75;26.48;;;230.90;2252.80;;;;;;5033077;28;20025;-75
2021/09/23 04:12:06;;;;;;;43.95;27.00;;;230.80;2252.80;;;;;;5020982;28;20030;-75
2021/09/23 04:14:33;;;;;;;34.60;23.92;;;230.80;2252.80;;;;;;5029526;28;20034;-76
2021/09/23 04:16:59;;;;;;;37.38;23.60;;;230.70;2252.80;;;;;;5033846;28;20033;-75
2021/09/23 04:19:24;;;;;;;34.30;22.60;;;230.70;2252.80;;;;;;5032909;28;20035;-75
2021/09/23 04:21:50;;;;;;;33.42;22.65;;;230.60;2252.80;;;;;;5026224;28;20025;-76
2021/09/23 04:24:16;;;;;;;30.08;20.80;;;230.60;2252.80;;;;;;5035840;28;20049;-77
2021/09/23 04:26:43;;;;;;;33.22;21.65;;;230.60;2252.80;;;;;;5032610;28;20040;-76
2021/09/23 04:29:09;;;;;;;29.60;21.13;;;230.60;2252.80;;;;;;5036971;28;20115;-76
2021/09/23 04:31:35;;;;;;;26.70;20.25;;;230.60;2252.80;;;;;;5044235;28;20029;-75
2021/09/23 04:34:01;;;;;;;29.08;20.80;;;230.50;2252.80;;;;;;5032738;28;20029;-75
2021/09/23 04:36:27;;;;;;;27.75;20.23;;;230.50;2252.80;;;;;;5035734;28;20388;-75
2021/09/23 04:38:52;;;;;;;28.20;20.02;;;230.50;2252.80;;;;;;5054038;28;20032;-75
2021/09/23 04:41:19;;;;;;;27.85;20.85;;;230.50;2252.80;;;;;;5027935;28;20444;-76
2021/09/23 04:43:47;;;;;;;25.52;19.17;;;230.50;2252.80;;;;;;5032563;28;20033;-75
2021/09/23 04:46:20;;;;;;;28.20;18.88;;;230.60;2252.80;;;;;;5049228;28;20086;-76
2021/09/23 04:48:50;;;;;;;25.10;18.65;;;230.70;2252.80;;;;;;5036789;28;20052;-76
2021/09/23 04:51:18;;;;;;;23.63;17.55;;;230.70;2252.80;;;;;;5034884;28;20025;-75
2021/09/23 04:53:43;;;;;;;28.80;21.40;;;230.80;2252.80;;;;;;5035779;28;20048;-75
2021/09/23 04:56:09;;;;;;;30.13;19.85;;;230.80;2252.80;;;;;;5035706;28;20037;-76
2021/09/23 04:58:35;;;;;;;27.52;20.63;;;230.90;2252.80;;;;;;5036263;28;20029;-76
2021/09/23 05:01:00;;;;;;;29.08;21.60;;;231.00;2252.80;;;;;;5032635;28;20025;-76
2021/09/23 05:03:26;;;;;;;33.03;21.52;;;230.90;2252.80;;;;;;5026912;28;20403;-76
2021/09/23 05:05:52;;;;;;;33.78;21.17;;;231.00;2252.80;;;;;;5025362;28;20029;-75
2021/09/23 05:08:17;;;;;;;33.60;22.23;;;231.10;2252.80;;;;;;5024323;28;20041;-77
2021/09/23 05:10:43;;;;;;;36.58;23.30;;;231.10;2252.80;;;;;;5040096;28;20429;-77
2021/09/23 05:13:09;;;;;;;32.55;23.33;;;231.20;2252.80;;;;;;5024269;28;20072;-77
2021/09/23 05:15:36;;;;;;;27.73;20.17;;;231.00;2252.80;;;;;;5026053;28;20472;-76
2021/09/23 05:18:03;;;;;;;25.17;18.90;;;231.00;2252.80;;;;;;5027161;28;20033;-77
2021/09/23 05:20:28;;;;;;;21.85;17.63;;;231.00;2252.80;;;;;;5029963;28;20021;-76
2021/09/23 05:22:54;;;;;;;22.73;17.15;;;231.20;2252.80;;;;;;5047655;28;20533;-77
2021/09/23 05:25:21;;;;;;;23.35;15.10;;;231.10;2252.80;;;;;;5032549;28;20053;-76
2021/09/23 05:27:47;;;;;;;19.63;14.05;;;231.00;2252.80;;;;;;5042446;28;20028;-76
2021/09/23 05:30:13;;;;;;;21.45;15.40;;;230.90;2252.80;;;;;;5039119;28;20396;-76
2021/09/23 05:32:39;;;;;;;21.25;15.25;;;230.90;2252.80;;;;;;5021828;28;20030;-76
2021/09/23 05:35:06;;;;;;;18.25;14.85;;;231.10;2252.80;;;;;;5045049;28;20029;-76
2021/09/23 05:37:32;;;;;;;20.92;14.73;;;231.10;2252.80;;;;;;5023889;28;20057;-76
2021/09/23 05:39:58;;;;;;;26.27;14.90;;;231.20;2252.80;;;;;;5042119;28;20053;-75
2021/09/23 05:42:23;;;;;;;19.10;14.48;;;231.20;2252.80;;;;;;5043505;28;20032;-76
2021/09/23 05:44:49;;;;;;;18.65;14.38;;;231.20;2252.80;;;;;;5024755;28;20506;-75
2021/09/23 05:47:15;;;;;;;19.33;14.15;;;256.00;2252.80;;;;;;5025439;28;20037;-75
2021/09/23 05:49:41;;;;;;;20.17;14.38;;;256.30;2252.80;;;;;;5047452;28;20404;-75
2021/09/23 05:52:07;;;;;;;18.88;14.75;;;256.00;2252.80;;;;;;5026744;28;20037;-75
2021/09/23 05:54:33;;;;;;;19.20;14.13;;;256.10;2252.80;;;;;;5025732;28;20029;-75
2021/09/23 05:56:59;;;;;;;18.73;14.20;;;256.20;2252.80;;;;;;5026198;28;20034;-74
2021/09/23 05:59:26;;;;;;;18.58;13.30;;;256.30;2252.80;;;;;;5024677;28;20025;-75
2021/09/23 06:01:55;;;;;;;18.58;13.93;;;256.30;2252.80;;;;;;5041652;28;20029;-74
2021/09/23 06:04:21;;;;;;;18.83;12.68;;;256.40;2252.80;;;;;;5044240;28;20014;-75
2021/09/23 06:06:47;;;;;;;17.00;13.32;;;256.30;2252.80;;;;;;5030633;28;20490;-74
2021/09/23 06:09:13;;;;;;;16.60;13.63;;;256.40;2252.80;;;;;;5023805;28;20029;-74
2021/09/23 06:11:39;;;;;;;17.13;14.02;;;256.40;2252.80;;;;;;5025691;28;20503;-74
2021/09/23 06:14:06;;;;;;;17.15;14.07;;;256.40;2252.80;;;;;;5027050;28;20087;-76
2021/09/23 06:16:32;;;;;;;18.50;14.70;;;256.50;2252.80;;;;;;5024688;28;20045;-76
2021/09/23 06:18:58;;;;;;;17.98;13.93;;;256.60;2252.80;;;;;;5025127;28;20384;-75
2021/09/23 06:21:23;;;;;;;17.67;15.05;;;256.70;2252.80;;;;;;5039706;28;20553;-75
2021/09/23 06:23:49;;;;;;;23.55;16.25;;;256.80;2252.80;;;;;;5040699;28;20037;-74
2021/09/23 06:26:15;;;;;;;23.20;15.20;;;281.60;2278.40;;;;;;5022910;28;20036;-74
2021/09/23 06:28:41;;;;;;;20.48;14.73;;;281.70;2278.40;;;;;;5040803;28;20109;-74
2021/09/23 06:31:07;;;;;;;21.05;15.88;;;281.90;2278.40;;;;;;5046349;28;20039;-75
2021/09/23 06:33:33;;;;;;;22.95;15.85;;;282.00;2278.40;;;;;;5018861;28;20067;-75
2021/09/23 06:35:59;;;;;;;21.83;16.17;;;282.00;2278.40;;;;;;5025817;28;20021;-75
2021/09/23 06:38:25;;;;;;;26.35;17.23;;;282.20;2278.40;;;;;;5040190;28;20014;-76
2021/09/23 06:40:54;;;;;;;24.35;17.85;;;282.30;2278.40;;;;;;5043476;28;20150;-75
2021/09/23 06:43:24;;;;;;;27.02;17.77;;;282.50;2278.40;;;;;;5026770;28;20025;-75
2021/09/23 06:45:50;;;;;;;25.42;17.38;;;307.20;2304.00;;;;;;5024024;28;20064;-76
2021/09/23 06:48:16;;;;;;;23.63;17.38;;;307.30;2304.00;;;;;;5038463;28;20021;-75
2021/09/23 06:50:42;;;;;;;24.15;15.63;;;307.40;2304.00;;;;;;5042911;28;20395;-75
2021/09/23 06:53:07;;;;;;;25.75;17.05;;;307.50;2304.00;;;;;;5038375;28;20069;-77
2021/09/23 07:06:54;;;;;;;23.55;18.48;;;307.50;2304.00;;;;;;5143101;27;20462;-76
2021/09/23 07:09:20;;;;;;;26.88;18.73;;;333.10;2329.60;;;;;;5129695;27;20487;-77
2021/09/23 07:11:45;;;;;;;23.45;16.10;;;333.20;2329.60;;;;;;5155521;27;20138;-77
2021/09/23 07:14:11;;;;;;;23.48;16.92;;;333.40;2329.60;;;;;;5128543;27;20027;-77
2021/09/23 07:16:37;;;;;;;23.00;16.08;;;333.50;2329.60;;;;;;5149841;27;20063;-77
2021/09/23 07:19:03;;;;;;;22.13;16.40;;;333.60;2329.60;;;;;;5149620;27;20015;-77
2021/09/23 07:21:29;;;;;;;25.98;19.50;;;358.40;2329.60;;;;;;5140567;27;20034;-77
2021/09/23 07:23:56;;;;;;;28.25;19.70;;;358.50;2329.60;;;;;;5125267;27;20023;-78
2021/09/23 07:26:22;;;;;;;29.98;20.05;;;358.60;2329.60;;;;;;5122706;27;20083;-78
2021/09/23 07:28:48;;;;;;;25.63;15.95;;;358.80;2329.60;;;;;;5149860;27;20031;-74
2021/09/23 07:31:13;;;;;;;21.27;16.20;;;358.90;2329.60;;;;;;5150418;27;20107;-75
2021/09/23 07:33:39;;;;;;;21.60;16.75;;;358.90;2329.60;;;;;;5133455;27;20111;-74
2021/09/23 07:36:05;;;;;;;20.85;15.80;;;359.00;2329.60;;;;;;5165465;27;20558;-75
2021/09/23 07:38:31;;;;;;;17.83;15.10;;;359.10;2329.60;;;;;;5156272;27;20035;-74
2021/09/23 07:40:57;;;;;;;19.45;14.70;;;384.00;2329.60;;;;;;5143712;27;20031;-75
2021/09/23 07:43:22;;;;;;;18.33;13.57;;;384.00;2329.60;;;;;;5148200;27;20375;-75
2021/09/23 07:45:48;;;;;;;19.02;15.48;;;384.00;2329.60;;;;;;5129051;27;20493;-75
2021/09/23 07:48:14;;;;;;;17.58;13.70;;;384.20;2329.60;;;;;;5147782;27;20026;-74
2021/09/23 07:50:40;;;;;;;24.48;16.40;;;384.50;2329.60;;;;;;5147546;27;20031;-75
2021/09/23 07:53:05;;;;;;;16.85;14.55;;;384.70;2329.60;;;;;;5129158;27;20034;-75
2021/09/23 07:55:31;;;;;;;17.27;12.93;;;409.70;2355.20;;;;;;5147412;27;20027;-75
2021/09/23 07:57:57;;;;;;;18.42;14.65;;;409.80;2355.20;;;;;;5163090;27;20031;-75
2021/09/23 08:00:23;;;;;;;21.48;14.70;;;409.90;2355.20;;;;;;5139713;27;20385;-75
2021/09/23 08:02:49;;;;;;;22.02;15.32;;;409.90;2355.20;;;;;;5140964;27;20214;-74
2021/09/23 08:05:15;;;;;;;25.02;16.67;;;410.00;2355.20;;;;;;5146996;27;20050;-75
2021/09/23 08:07:44;;;;;;;19.35;14.88;;;410.30;2355.20;;;;;;5138437;27;20035;-74
2021/09/23 08:10:10;;;;;;;18.30;14.50;;;410.40;2355.20;;;;;;5098906;27;20157;-74
2021/09/23 08:12:36;;;;;;;18.02;13.60;;;435.20;2355.20;;;;;;5114494;27;20070;-74
2021/09/23 08:15:03;;;;;;;17.30;12.05;;;435.80;2355.20;;;;;;5133829;27;20096;-75
2021/09/23 08:17:28;;;;;;;15.98;11.40;;;435.90;2355.20;;;;;;5115129;27;20030;-74
2021/09/23 08:19:54;;;;;;;17.30;13.57;;;460.90;2380.80;;;;;;5149138;27;20035;-75
2021/09/23 08:22:20;;;;;;;14.82;10.55;;;461.30;2380.80;;;;;;5132974;27;20030;-74
2021/09/23 08:24:46;;;;;;;15.13;12.18;;;461.70;2380.80;;;;;;5114650;27;20126;-74
2021/09/23 08:27:12;;;;;;;15.50;10.82;;;461.70;2380.80;;;;;;5134558;27;20471;-75
2021/09/23 08:29:38;;;;;;;12.30;9.30;;;486.40;2380.80;;;;;;5114837;27;20030;-75
2021/09/23 08:32:04;;;;;;;12.15;8.55;;;486.60;2380.80;;;;;;5132034;27;20027;-74
2021/09/23 08:34:30;;;;;;;10.25;8.35;;;486.40;2380.80;;;;;;5119547;27;20031;-75
2021/09/23 08:36:55;;;;;;;8.15;6.97;;;486.40;2380.80;;;;;;5114836;27;20126;-75
2021/09/23 08:39:21;;;;;;;8.75;7.78;;;461.40;2380.80;;;;;;5114119;27;20035;-75
2021/09/23 08:41:49;;;;;;;12.15;7.88;;;461.70;2380.80;;;;;;5133150;27;20019;-75
2021/09/23 08:44:15;;;;;;;15.50;9.50;;;486.50;2380.80;;;;;;5113971;27;20020;-74
2021/09/23 08:46:42;;;;;;;14.27;10.88;;;486.70;2380.80;;;;;;5114694;27;20135;-75
2021/09/23 08:49:10;;;;;;;10.18;8.40;;;486.50;2380.80;;;;;;5113519;27;20027;-75
2021/09/23 08:51:36;;;;;;;12.85;9.30;;;461.50;2380.80;;;;;;5132997;27;20069;-75
2021/09/23 08:54:03;;;;;;;10.05;8.05;;;486.50;2380.80;;;;;;5114302;27;20019;-74
2021/09/23 08:56:29;;;;;;;9.98;7.65;;;461.60;2380.80;;;;;;5113889;27;20058;-75
2021/09/23 08:58:54;;;;;;;10.10;7.32;;;461.50;2380.80;;;;;;5102161;28;20063;-75
2021/09/23 09:01:23;;;;;;;11.82;7.70;;;461.70;2380.80;;;;;;5130468;27;20382;-75
2021/09/23 09:04:01;;;;;;;12.95;8.23;;;461.60;2380.80;;;;;;5121741;27;20024;-75
2021/09/23 09:06:27;;;;;;;8.68;6.68;;;461.60;2380.80;;;;;;5130323;27;20050;-75
2021/09/23 09:08:53;;;;;;;10.38;7.28;;;461.60;2380.80;;;;;;5114308;27;20146;-75
2021/09/23 09:11:19;;;;;;;9.25;7.32;;;486.70;2380.80;;;;;;5113090;27;20043;-75
2021/09/23 09:13:47;;;;;;;8.80;7.15;;;486.40;2380.80;;;;;;5113668;27;20015;-75
2021/09/23 09:16:26;;;;;;;9.65;7.25;;;486.40;2380.80;;;;;;5132282;27;20027;-75
2021/09/23 09:18:54;;;;;;;15.82;10.32;;;461.70;2380.80;;;;;;5112433;27;20023;-74
2021/09/23 09:21:22;;;;;;;11.65;8.15;;;486.60;2380.80;;;;;;5132354;27;20558;-75
2021/09/23 09:23:59;;;;;;;10.55;7.03;;;486.70;2380.80;;;;;;5110131;27;20383;-75
2021/09/23 09:26:35;;;;;;;10.10;6.53;;;486.70;2380.80;;;;;;5103761;27;20077;-75
2021/09/23 09:29:03;;;;;;;9.73;7.03;;;487.10;2380.80;;;;;;5131755;27;20015;-75
2021/09/23 09:31:30;;;;;;;9.70;8.02;;;487.10;2380.80;;;;;;5131894;27;20114;-75
2021/09/23 09:34:01;;;;;;;12.25;8.10;;;486.90;2380.80;;;;;;5131932;27;20076;-75
2021/09/23 09:36:35;;;;;;;14.70;10.15;;;486.90;2380.80;;;;;;5128298;27;20027;-75
2021/09/23 09:39:13;;;;;;;16.13;9.90;;;512.10;2380.80;;;;;;5120791;27;20019;-75
2021/09/23 09:41:41;;;;;;;11.50;8.68;;;512.60;2380.80;;;;;;5093354;28;20495;-75
2021/09/23 09:44:10;;;;;;;13.20;8.23;;;512.10;2380.80;;;;;;5123034;27;20038;-75
2021/09/23 09:46:49;;;;;;;11.77;9.13;;;512.30;2380.80;;;;;;5131478;27;20030;-75
2021/09/23 09:49:16;;;;;;;10.00;7.65;;;512.50;2380.80;;;;;;5110753;27;20452;-75
2021/09/23 09:51:47;;;;;;;7.90;6.20;;;512.70;2380.80;;;;;;5112577;27;20023;-75
2021/09/23 09:54:15;;;;;;;12.35;8.70;;;512.60;2380.80;;;;;;5112486;27;20043;-75
2021/09/23 09:56:44;;;;;;;9.65;6.93;;;537.90;2406.40;;;;;;5130901;27;20090;-75
2021/09/23 09:59:15;;;;;;;9.15;6.25;;;538.10;2304.00;;;;;;5110052;27;20030;-75
2021/09/23 10:01:43;;;;;;;14.32;8.85;;;538.10;2304.00;;;;;;5108870;27;20024;-75
2021/09/23 10:04:10;;;;;;;5.90;4.72;;;563.50;2227.20;;;;;;5111765;27;20019;-75
2021/09/23 10:06:38;;;;;;;8.60;5.80;;;563.70;2048.00;;;;;;5111100;27;20047;-75
2021/09/23 10:09:04;;;;;;;8.32;6.18;;;588.80;1920.00;;;;;;5125329;27;20014;-75
2021/09/23 10:11:31;;;;;;;10.65;6.68;;;564.10;2073.60;;;;;;5130631;27;20023;-75
2021/09/23 10:13:58;;;;;;;6.95;5.30;;;563.70;2073.60;;;;;;5116607;27;20019;-75
2021/09/23 10:16:24;;;;;;;7.38;5.13;;;563.40;2022.40;;;;;;5112478;27;20459;-75
2021/09/23 10:18:51;;;;;;;7.50;5.50;;;538.40;2022.40;;;;;;5112260;27;20015;-75
2021/09/23 10:21:17;;;;;;;7.60;5.35;;;563.20;2022.40;;;;;;5098151;27;20391;-75
2021/09/23 10:23:44;;;;;;;6.85;5.20;;;538.40;1945.60;;;;;;5130833;27;20064;-75
2021/09/23 10:26:14;;;;;;;7.28;5.97;;;563.70;1920.00;;;;;;5131064;27;20492;-75
2021/09/23 10:28:45;;;;;;;8.50;5.85;;;588.90;1945.60;;;;;;5105814;28;20024;-75
2021/09/23 10:31:22;;;;;;;8.32;6.18;;;563.90;1971.20;;;;;;5111478;28;20023;-75
2021/09/23 10:33:49;;;;;;;6.03;4.90;;;589.00;1945.60;;;;;;5131029;27;20463;-75
2021/09/23 10:36:20;;;;;;;8.43;5.78;;;589.00;1868.80;;;;;;5130190;27;20039;-75
2021/09/23 10:38:47;;;;;;;7.85;5.75;;;563.50;1894.40;;;;;;5112711;27;20474;-75
2021/09/23 10:41:13;;;;;;;9.70;6.15;;;563.70;1920.00;;;;;;5130744;27;20102;-75
2021/09/23 10:43:42;;;;;;;9.32;6.78;;;564.00;1843.20;;;;;;5112065;27;20478;-75
2021/09/23 10:46:11;;;;;;;8.77;6.35;;;563.40;1894.40;;;;;;5112684;28;20034;-75
2021/09/23 10:48:38;;;;;;;12.82;9.02;;;563.20;1868.80;;;;;;5130453;27;20081;-75
2021/09/23 10:51:05;;;;;;;9.85;7.82;;;564.10;1843.20;;;;;;5112520;27;20543;-75
2021/09/23 10:53:35;;;;;;;10.52;8.15;;;589.00;1817.60;;;;;;5130194;27;20020;-75
2021/09/23 10:56:04;;;;;;;10.68;8.07;;;589.20;1843.20;;;;;;5102477;28;20537;-75
2021/09/23 10:58:30;;;;;;;13.25;8.27;;;589.30;1843.20;;;;;;5108065;28;20035;-75
2021/09/23 11:01:00;;;;;;;12.23;7.38;;;589.50;1817.60;;;;;;5106687;28;20034;-75
2021/09/23 11:03:39;;;;;;;11.77;7.70;;;588.90;1843.20;;;;;;5113968;28;20030;-75
2021/09/23 11:06:12;;;;;;;15.18;10.13;;;564.10;1843.20;;;;;;5112588;28;20075;-75
2021/09/23 11:08:45;;;;;;;8.05;6.40;;;564.10;1843.20;;;;;;5115071;27;20070;-75
2021/09/23 11:11:11;;;;;;;8.18;6.70;;;614.60;1740.80;;;;;;5094479;28;20015;-75
2021/09/23 11:13:39;;;;;;;9.32;7.40;;;615.20;1766.40;;;;;;5109331;28;20547;-75
2021/09/23 11:16:08;;;;;;;10.85;8.55;;;614.90;1715.20;;;;;;5112317;28;20037;-76
2021/09/23 11:18:36;;;;;;;9.85;7.28;;;640.00;1689.60;;;;;;5129930;27;20016;-75
2021/09/23 11:21:04;;;;;;;10.15;7.70;;;640.10;1664.00;;;;;;5117752;27;20019;-76
2021/09/23 11:23:31;;;;;;;9.02;7.25;;;615.30;1689.60;;;;;;5109751;28;20059;-75
2021/09/23 11:25:57;;;;;;;10.23;6.25;;;640.50;1638.40;;;;;;5124840;27;20030;-75
2021/09/23 11:28:23;;;;;;;10.13;6.18;;;640.40;1638.40;;;;;;5110880;28;20023;-75
2021/09/23 11:30:51;;;;;;;9.35;6.95;;;614.90;1689.60;;;;;;5126911;28;20023;-75
2021/09/23 11:33:18;;;;;;;7.57;5.82;;;614.50;1740.80;;;;;;5103927;28;20036;-76
2021/09/23 11:35:46;;;;;;;9.57;6.85;;;589.30;1792.00;;;;;;5113139;28;20479;-75
2021/09/23 11:38:15;;;;;;;8.63;6.72;;;564.00;1792.00;;;;;;5112588;28;20131;-75
2021/09/23 11:40:42;;;;;;;8.85;5.55;;;589.30;1766.40;;;;;;5128171;27;20541;-75
2021/09/23 11:43:13;;;;;;;7.85;5.90;;;589.30;1766.40;;;;;;5134750;27;20455;-75
2021/09/23 11:45:53;;;;;;;10.38;6.03;;;589.30;1792.00;;;;;;5128667;27;20077;-74
2021/09/23 11:48:24;;;;;;;6.47;4.57;;;615.30;1715.20;;;;;;5110893;27;20024;-75
2021/09/23 11:51:01;;;;;;;6.85;4.78;;;640.50;1664.00;;;;;;5135540;27;20534;-76
2021/09/23 11:53:29;;;;;;;7.20;4.45;;;640.40;1638.40;;;;;;5135417;27;20019;-76
2021/09/23 11:56:05;;;;;;;8.45;5.25;;;640.80;1612.80;;;;;;5134083;27;20019;-75
2021/09/23 11:58:35;;;;;;;6.90;4.72;;;665.60;1612.80;;;;;;5104765;28;20031;-75
2021/09/23 12:01:02;;;;;;;5.90;4.82;;;640.20;1638.40;;;;;;5112174;27;20019;-76
2021/09/23 12:03:28;;;;;;;8.43;6.57;;;665.60;1612.80;;;;;;5128312;27;20019;-75
2021/09/23 12:05:59;;;;;;;5.88;4.88;;;691.20;1561.60;;;;;;5127923;27;20047;-76
2021/09/23 12:08:29;;;;;;;5.22;4.55;;;665.70;1587.20;;;;;;5113878;27;20035;-76
2021/09/23 12:10:56;;;;;;;11.45;7.88;;;665.90;1561.60;;;;;;5132650;27;20103;-75
2021/09/23 12:16:01;;;;;;;5.57;4.20;;;666.40;1510.40;;;;;;5135424;27;20027;-76